createdAt,value
2019-02-02T00:01:06.341Z,26.70
2019-02-02T00:02:18.227Z,26.30
2019-02-02T00:03:25.497Z,24.45
2019-02-02T00:04:31.479Z,29.20
2019-02-02T00:05:38.034Z,27.62
2019-02-02T00:06:43.395Z,26.73
2019-02-02T00:07:48.534Z,27.35
2019-02-02T00:08:54.619Z,24.18
2019-02-02T00:10:00.924Z,31.17
2019-02-02T00:11:06.010Z,27.82
2019-02-02T00:12:12.838Z,29.42
2019-02-02T00:13:18.246Z,22.87
2019-02-02T00:14:23.137Z,28.50
2019-02-02T00:15:28.384Z,27.98
2019-02-02T00:16:33.114Z,28.02
2019-02-02T00:17:39.299Z,26.00
2019-02-02T00:18:44.181Z,35.83
2019-02-02T00:19:49.261Z,35.23
2019-02-02T00:21:01.852Z,39.13
2019-02-02T00:22:08.394Z,44.58
2019-02-02T00:23:15.792Z,44.35
2019-02-02T00:24:20.516Z,43.33
2019-02-02T00:25:26.127Z,49.23
2019-02-02T00:26:31.323Z,44.85
2019-02-02T00:27:41.512Z,45.25
2019-02-02T00:28:43.257Z,48.33
2019-02-02T00:29:55.058Z,43.42
2019-02-02T00:31:07.299Z,55.00
2019-02-02T00:32:20.102Z,43.45
2019-02-02T00:33:33.078Z,44.40
2019-02-02T00:34:37.999Z,51.23
2019-02-02T00:35:42.730Z,41.68
2019-02-02T00:36:48.994Z,39.88
2019-02-02T00:37:53.924Z,39.98
2019-02-02T00:38:58.701Z,45.73
2019-02-02T00:40:06.407Z,37.33
2019-02-02T00:41:11.197Z,34.45
2019-02-02T00:42:16.086Z,40.58
2019-02-02T00:43:20.184Z,39.98
2019-02-02T00:44:24.211Z,30.95
2019-02-02T00:45:29.201Z,34.85
2019-02-02T00:46:38.199Z,29.75
2019-02-02T00:47:42.667Z,30.25
2019-02-02T00:48:47.545Z,27.32
2019-02-02T00:49:57.797Z,25.20
2019-02-02T00:51:02.050Z,31.52
2019-02-02T00:52:06.263Z,31.27
2019-02-02T00:53:10.473Z,30.68
2019-02-02T00:54:14.947Z,29.00
2019-02-02T00:55:19.275Z,21.73
2019-02-02T00:56:24.088Z,25.92
2019-02-02T00:57:28.457Z,22.75
2019-02-02T00:58:32.870Z,25.20
2019-02-02T00:59:43.389Z,29.02
2019-02-02T01:00:48.032Z,26.82
2019-02-02T01:01:55.788Z,25.48
2019-02-02T01:03:00.561Z,20.10
2019-02-02T01:04:05.462Z,27.90
2019-02-02T01:05:11.069Z,22.22
2019-02-02T01:06:15.620Z,21.60
2019-02-02T01:07:20.031Z,22.90
2019-02-02T01:08:27.024Z,23.40
2019-02-02T01:09:32.025Z,25.35
2019-02-02T01:10:37.338Z,38.78
2019-02-02T01:11:41.761Z,22.77
2019-02-02T01:12:47.549Z,27.13
2019-02-02T01:13:52.538Z,23.30
2019-02-02T01:14:57.881Z,23.20
2019-02-02T01:16:02.178Z,29.20
2019-02-02T01:17:08.511Z,21.23
2019-02-02T01:18:16.460Z,24.63
2019-02-02T01:19:22.744Z,20.55
2019-02-02T01:20:27.763Z,34.30
2019-02-02T01:21:35.271Z,27.37
2019-02-02T01:22:40.257Z,25.37
2019-02-02T01:23:44.729Z,23.65
2019-02-02T01:24:51.028Z,24.05
2019-02-02T01:25:55.988Z,25.60
2019-02-02T01:27:00.269Z,26.10
2019-02-02T01:28:05.693Z,24.67
2019-02-02T01:29:10.937Z,25.50
2019-02-02T01:30:18.398Z,23.45
2019-02-02T01:31:22.805Z,24.02
2019-02-02T01:32:27.660Z,20.17
2019-02-02T01:33:32.111Z,21.00
2019-02-02T01:34:36.406Z,17.70
2019-02-02T01:35:40.699Z,20.95
2019-02-02T01:36:46.447Z,29.55
2019-02-02T01:37:50.816Z,24.45
2019-02-02T01:38:55.967Z,22.40
2019-02-02T01:40:00.794Z,22.10
2019-02-02T01:41:05.709Z,19.45
2019-02-02T01:42:11.966Z,26.27
2019-02-02T01:43:16.438Z,28.32
2019-02-02T01:44:20.749Z,20.37
2019-02-02T01:45:26.886Z,20.90
2019-02-02T01:46:31.442Z,19.10
2019-02-02T01:47:36.022Z,19.77
2019-02-02T01:48:40.056Z,30.92
2019-02-02T01:49:44.087Z,23.20
2019-02-02T01:50:49.848Z,21.02
2019-02-02T01:51:55.037Z,21.82
2019-02-02T01:52:59.494Z,20.10
2019-02-02T01:54:04.232Z,22.22
2019-02-02T01:55:08.919Z,22.73
2019-02-02T01:56:13.008Z,22.70
2019-02-02T01:57:17.926Z,24.10
2019-02-02T01:58:22.811Z,19.80
2019-02-02T01:59:28.292Z,23.42
2019-02-02T02:00:33.720Z,27.37
2019-02-02T02:01:41.364Z,24.10
2019-02-02T02:02:48.886Z,24.45
2019-02-02T02:03:53.734Z,20.43
2019-02-02T02:04:58.626Z,23.02
2019-02-02T02:06:04.350Z,20.90
2019-02-02T02:07:09.582Z,21.00
2019-02-02T02:08:14.390Z,27.15
2019-02-02T02:18:30.711Z,28.27
2019-02-02T02:19:37.361Z,22.50
2019-02-02T02:20:56.286Z,36.98
2019-02-02T02:22:01.001Z,26.52
2019-02-02T02:23:05.897Z,21.95
2019-02-02T02:24:11.446Z,20.10
2019-02-02T02:25:18.191Z,23.12
2019-02-02T02:26:22.845Z,20.95
2019-02-02T02:27:27.911Z,21.27
2019-02-02T02:28:33.220Z,20.48
2019-02-02T02:29:38.248Z,20.55
2019-02-02T02:30:43.453Z,28.00
2019-02-02T02:31:50.387Z,24.70
2019-02-02T02:32:55.642Z,23.00
2019-02-02T02:34:00.553Z,26.05
2019-02-02T02:35:06.439Z,29.82
2019-02-02T02:36:11.166Z,24.07
2019-02-02T02:37:16.264Z,22.73
2019-02-02T02:38:21.209Z,24.67
2019-02-02T02:39:26.006Z,29.23
2019-02-02T02:40:31.056Z,23.92
2019-02-02T02:41:35.798Z,29.32
2019-02-02T02:42:43.254Z,22.75
2019-02-02T02:43:48.705Z,23.22
2019-02-02T02:44:53.485Z,29.57
2019-02-02T02:45:58.315Z,28.40
2019-02-02T02:47:03.839Z,28.12
2019-02-02T02:48:10.152Z,21.80
2019-02-02T02:49:15.353Z,26.55
2019-02-02T02:50:21.505Z,27.20
2019-02-02T02:53:45.684Z,29.42
2019-02-02T02:54:50.637Z,28.92
2019-02-02T02:55:55.461Z,24.32
2019-02-02T02:57:00.487Z,19.85
2019-02-02T02:58:56.608Z,25.60
2019-02-02T03:00:01.292Z,37.33
2019-02-02T03:01:06.302Z,27.98
2019-02-02T03:02:11.092Z,27.82
2019-02-02T03:03:15.895Z,28.42
2019-02-02T03:04:20.743Z,28.70
2019-02-02T03:05:25.644Z,21.45
2019-02-02T03:06:30.451Z,27.87
2019-02-02T03:07:35.150Z,23.90
2019-02-02T03:08:39.986Z,31.57
2019-02-02T03:09:44.690Z,25.92
2019-02-02T03:10:50.837Z,26.23
2019-02-02T03:11:55.479Z,25.27
2019-02-02T03:13:00.227Z,27.98
2019-02-02T03:14:05.316Z,27.93
2019-02-02T03:15:11.210Z,27.70
2019-02-02T03:16:16.347Z,24.57
2019-02-02T03:17:21.045Z,23.83
2019-02-02T03:18:25.824Z,29.18
2019-02-02T03:19:30.593Z,31.50
2019-02-02T03:20:35.767Z,27.52
2019-02-02T03:21:43.605Z,31.62
2019-02-02T03:22:47.123Z,36.88
2019-02-02T03:23:51.932Z,23.67
2019-02-02T03:24:56.675Z,23.75
2019-02-02T03:26:01.681Z,27.67
2019-02-02T03:27:06.325Z,28.67
2019-02-02T03:28:11.070Z,27.52
2019-02-02T03:29:16.113Z,34.25
2019-02-02T03:30:21.850Z,27.58
2019-02-02T03:31:26.685Z,37.33
2019-02-02T03:32:31.411Z,34.95
2019-02-02T03:33:36.343Z,24.85
2019-02-02T03:34:41.281Z,30.02
2019-02-02T03:35:46.539Z,28.12
2019-02-02T03:36:52.341Z,31.25
2019-02-02T03:37:57.493Z,32.55
2019-02-02T03:39:02.175Z,38.75
2019-02-02T03:40:09.141Z,29.12
2019-02-02T03:41:14.031Z,27.98
2019-02-02T03:42:19.131Z,28.80
2019-02-02T03:43:24.214Z,27.70
2019-02-02T03:44:29.004Z,32.75
2019-02-02T03:45:33.844Z,26.30
2019-02-02T03:46:38.551Z,30.02
2019-02-02T03:47:43.324Z,33.65
2019-02-02T03:48:48.364Z,28.05
2019-02-02T03:49:53.027Z,28.32
2019-02-02T03:50:57.735Z,27.87
2019-02-02T03:52:03.017Z,28.67
2019-02-02T03:53:07.671Z,28.85
2019-02-02T03:54:12.501Z,36.30
2019-02-02T03:55:17.483Z,26.02
2019-02-02T03:56:22.182Z,26.30
2019-02-02T03:57:26.834Z,29.07
2019-02-02T03:58:31.507Z,23.45
2019-02-02T03:59:36.248Z,26.68
2019-02-02T04:00:40.940Z,25.23
2019-02-02T04:01:45.717Z,30.68
2019-02-02T04:02:50.455Z,27.20
2019-02-02T04:03:55.170Z,36.10
2019-02-02T04:05:00.383Z,29.30
2019-02-02T04:06:05.539Z,33.78
2019-02-02T04:07:10.472Z,40.30
2019-02-02T04:08:15.203Z,33.45
2019-02-02T04:09:20.085Z,29.55
2019-02-02T04:10:24.891Z,33.95
2019-02-02T04:11:31.094Z,31.75
2019-02-02T04:12:35.781Z,25.85
2019-02-02T04:13:40.697Z,31.37
2019-02-02T04:14:45.496Z,27.73
2019-02-02T04:15:50.298Z,31.82
2019-02-02T04:16:55.372Z,41.35
2019-02-02T04:18:00.194Z,29.02
2019-02-02T04:19:04.655Z,28.80
2019-02-02T04:20:14.201Z,32.85
2019-02-02T04:21:19.300Z,28.12
2019-02-02T04:22:24.120Z,34.10
2019-02-02T04:23:28.924Z,31.00
2019-02-02T04:24:33.823Z,31.97
2019-02-02T04:25:38.825Z,26.20
2019-02-02T04:26:43.531Z,29.92
2019-02-02T04:27:48.573Z,23.87
2019-02-02T04:28:53.851Z,27.32
2019-02-02T04:29:58.111Z,32.70
2019-02-02T04:31:02.852Z,26.75
2019-02-02T04:32:07.893Z,25.85
2019-02-02T04:33:13.034Z,21.55
2019-02-02T04:34:17.891Z,22.98
2019-02-02T04:35:22.787Z,22.27
2019-02-02T04:36:27.567Z,33.90
2019-02-02T04:37:32.356Z,25.20
2019-02-02T04:38:37.643Z,28.40
2019-02-02T04:39:42.332Z,27.07
2019-02-02T04:40:47.053Z,23.05
2019-02-02T04:41:51.719Z,27.42
2019-02-02T04:42:56.507Z,24.75
2019-02-02T04:44:00.651Z,22.05
2019-02-02T04:45:06.540Z,25.40
2019-02-02T04:46:11.439Z,22.30
2019-02-02T04:47:16.492Z,29.98
2019-02-02T04:48:21.412Z,22.62
2019-02-02T04:49:26.049Z,20.50
2019-02-02T04:50:30.830Z,29.18
2019-02-02T04:51:35.548Z,24.10
2019-02-02T04:52:40.244Z,24.15
2019-02-02T04:53:45.286Z,24.75
2019-02-02T04:54:50.012Z,23.35
2019-02-02T04:55:55.046Z,21.52
2019-02-02T04:57:03.010Z,23.70
2019-02-02T04:58:07.692Z,28.30
2019-02-02T04:59:12.354Z,28.95
2019-02-02T05:00:25.426Z,25.55
2019-02-02T05:01:30.115Z,25.57
2019-02-02T05:02:34.769Z,25.65
2019-02-02T05:03:39.679Z,26.77
2019-02-02T05:04:44.346Z,25.32
2019-02-02T05:05:49.377Z,28.20
2019-02-02T05:06:53.990Z,29.63
2019-02-02T05:07:58.655Z,31.37
2019-02-02T05:09:03.382Z,22.70
2019-02-02T05:10:11.007Z,23.42
2019-02-02T05:11:15.042Z,21.10
2019-02-02T05:12:19.026Z,24.43
2019-02-02T05:13:23.059Z,24.65
2019-02-02T05:14:27.982Z,22.05
2019-02-02T05:15:31.964Z,24.50
2019-02-02T05:16:36.129Z,25.00
2019-02-02T05:17:40.446Z,19.80
2019-02-02T05:18:45.256Z,27.50
2019-02-02T05:19:50.188Z,24.50
2019-02-02T05:20:54.198Z,26.30
2019-02-02T05:21:58.999Z,26.60
2019-02-02T05:23:03.940Z,21.97
2019-02-02T05:24:08.998Z,21.23
2019-02-02T05:25:13.980Z,21.75
2019-02-02T05:26:18.790Z,23.42
2019-02-02T05:27:23.627Z,24.32
2019-02-02T05:28:29.319Z,24.57
2019-02-02T05:29:41.134Z,29.00
2019-02-02T05:30:39.726Z,21.07
2019-02-02T05:31:43.689Z,23.67
2019-02-02T05:32:48.547Z,27.98
2019-02-02T05:33:53.796Z,18.50
2019-02-02T05:34:58.569Z,20.55
2019-02-02T05:36:03.276Z,22.95
2019-02-02T05:37:07.879Z,20.35
2019-02-02T05:38:12.558Z,25.43
2019-02-02T05:39:17.787Z,21.77
2019-02-02T05:40:22.996Z,20.70
2019-02-02T05:41:27.946Z,25.27
2019-02-02T05:42:32.776Z,38.40
2019-02-02T05:43:37.661Z,22.82
2019-02-02T05:44:42.435Z,22.85
2019-02-02T05:45:47.203Z,23.95
2019-02-02T05:46:52.495Z,35.95
2019-02-02T05:47:57.268Z,89.25
2019-02-02T05:49:02.375Z,35.48
2019-02-02T05:50:08.363Z,131.97
2019-02-02T05:51:13.231Z,88.15
2019-02-02T05:52:18.165Z,43.63
2019-02-02T05:53:23.431Z,41.95
2019-02-02T05:54:28.338Z,45.25
2019-02-02T05:55:33.102Z,85.50
2019-02-02T05:56:38.043Z,48.73
2019-02-02T05:57:42.880Z,55.00
2019-02-02T05:58:47.604Z,47.95
2019-02-02T05:59:53.098Z,46.73
2019-02-02T06:00:58.320Z,61.68
2019-02-02T06:02:03.418Z,68.30
2019-02-02T06:03:08.188Z,49.50
2019-02-02T06:04:13.047Z,84.70
2019-02-02T06:05:17.715Z,99.85
2019-02-02T06:06:22.459Z,62.35
2019-02-02T06:07:30.040Z,72.35
2019-02-02T06:08:43.285Z,152.78
2019-02-02T06:09:48.107Z,66.72
2019-02-02T06:10:52.867Z,64.85
2019-02-02T06:11:57.790Z,111.17
2019-02-02T06:13:02.843Z,112.37
2019-02-02T06:14:08.201Z,78.20
2019-02-02T06:15:13.166Z,44.25
2019-02-02T06:16:19.662Z,55.38
2019-02-02T06:17:24.322Z,44.88
2019-02-02T06:18:29.307Z,35.92
2019-02-02T06:19:33.631Z,36.13
2019-02-02T06:20:38.790Z,57.27
2019-02-02T06:21:44.141Z,62.15
2019-02-02T06:22:48.197Z,50.95
2019-02-02T06:23:52.505Z,51.42
2019-02-02T06:25:03.217Z,37.33
2019-02-02T06:26:08.039Z,32.28
2019-02-02T06:27:12.699Z,36.48
2019-02-02T06:28:17.539Z,32.10
2019-02-02T06:29:21.780Z,36.55
2019-02-02T06:30:29.428Z,44.08
2019-02-02T06:31:35.253Z,44.13
2019-02-02T06:32:40.072Z,27.90
2019-02-02T06:33:44.872Z,42.73
2019-02-02T06:34:49.079Z,35.33
2019-02-02T06:35:53.155Z,24.23
2019-02-02T06:36:57.717Z,29.25
2019-02-02T06:38:02.852Z,22.75
2019-02-02T06:39:12.488Z,27.50
2019-02-02T06:40:17.446Z,22.80
2019-02-02T06:41:33.134Z,28.00
2019-02-02T06:42:45.232Z,28.25
2019-02-02T06:44:37.679Z,25.65
2019-02-02T06:45:41.956Z,29.15
2019-02-02T06:46:45.932Z,29.72
2019-02-02T06:47:51.506Z,24.02
2019-02-02T06:48:55.525Z,25.15
2019-02-02T06:50:02.881Z,27.02
2019-02-02T06:51:06.937Z,22.52
2019-02-02T06:52:11.077Z,31.30
2019-02-02T06:53:55.330Z,33.08
2019-02-02T06:55:02.143Z,26.37
2019-02-02T06:56:24.980Z,26.62
2019-02-02T06:57:32.082Z,27.25
2019-02-02T06:58:36.790Z,27.55
2019-02-02T06:59:41.722Z,25.25
2019-02-02T07:00:47.075Z,24.98
2019-02-02T07:01:52.349Z,29.63
2019-02-02T07:03:00.704Z,25.80
2019-02-02T07:04:05.985Z,27.65
2019-02-02T07:05:11.591Z,24.10
2019-02-02T07:06:16.301Z,24.35
2019-02-02T07:07:34.949Z,21.45
2019-02-02T07:08:45.893Z,22.82
2019-02-02T07:09:54.480Z,23.12
2019-02-02T07:11:01.287Z,21.15
2019-02-02T07:12:24.009Z,27.22
2019-02-02T07:13:58.818Z,22.05
2019-02-02T07:15:04.640Z,28.62
2019-02-02T07:16:18.637Z,22.27
2019-02-02T07:17:30.247Z,18.87
2019-02-02T07:18:35.334Z,23.25
2019-02-02T07:19:40.008Z,17.82
2019-02-02T07:20:45.153Z,20.88
2019-02-02T07:21:50.485Z,23.50
2019-02-02T07:22:56.866Z,25.90
2019-02-02T07:24:01.544Z,18.98
2019-02-02T07:25:06.887Z,21.42
2019-02-02T07:26:12.198Z,23.55
2019-02-02T07:27:17.370Z,28.92
2019-02-02T07:28:22.276Z,25.82
2019-02-02T07:29:27.788Z,26.40
2019-02-02T07:30:32.527Z,30.43
2019-02-02T07:31:39.337Z,27.80
2019-02-02T07:32:46.387Z,30.15
2019-02-02T07:33:51.515Z,32.08
2019-02-02T07:34:56.317Z,32.00
2019-02-02T07:36:10.688Z,26.77
2019-02-02T07:37:18.753Z,27.77
2019-02-02T07:40:17.966Z,27.15
2019-02-02T07:41:22.744Z,28.30
2019-02-02T07:42:27.719Z,28.38
2019-02-02T07:43:37.245Z,21.00
2019-02-02T07:44:42.050Z,28.32
2019-02-02T07:45:47.227Z,24.45
2019-02-02T07:46:52.064Z,23.75
2019-02-02T07:48:01.269Z,26.45
2019-02-02T07:49:52.265Z,23.47
2019-02-02T07:50:57.243Z,28.45
2019-02-02T07:52:02.181Z,35.98
2019-02-02T07:53:08.424Z,40.67
2019-02-02T07:54:14.429Z,25.90
2019-02-02T07:55:26.194Z,27.32
2019-02-02T07:56:33.965Z,25.55
2019-02-02T07:57:39.289Z,25.82
2019-02-02T07:58:44.190Z,24.87
2019-02-02T07:59:55.089Z,25.32
2019-02-02T08:01:00.000Z,24.05
2019-02-02T08:02:05.818Z,22.15
2019-02-02T08:03:27.735Z,28.95
2019-02-02T08:04:32.761Z,27.27
2019-02-02T08:05:37.921Z,23.95
2019-02-02T08:06:42.679Z,25.00
2019-02-02T08:07:47.443Z,24.87
2019-02-02T08:08:52.375Z,26.15
2019-02-02T08:09:57.083Z,30.00
2019-02-02T08:11:09.877Z,30.15
2019-02-02T08:12:34.047Z,26.80
2019-02-02T08:13:41.803Z,23.38
2019-02-02T08:14:48.035Z,28.23
2019-02-02T08:16:00.214Z,38.83
2019-02-02T08:17:09.363Z,29.00
2019-02-02T08:18:14.219Z,24.98
2019-02-02T08:19:19.121Z,26.30
2019-02-02T08:20:24.510Z,29.18
2019-02-02T08:21:29.211Z,33.02
2019-02-02T08:25:13.400Z,34.30
2019-02-02T08:26:29.654Z,26.15
2019-02-02T08:27:35.392Z,29.10
2019-02-02T08:28:43.912Z,27.70
2019-02-02T08:31:12.186Z,24.95
2019-02-02T08:32:22.319Z,26.55
2019-02-02T08:33:48.096Z,22.00
2019-02-02T08:34:53.170Z,22.60
2019-02-02T08:35:58.062Z,25.05
2019-02-02T08:37:05.513Z,22.55
2019-02-02T08:38:10.392Z,23.07
2019-02-02T08:39:15.903Z,24.80
2019-02-02T08:40:21.241Z,26.50
2019-02-02T08:41:31.187Z,24.57
2019-02-02T08:42:41.937Z,23.25
2019-02-02T08:43:46.763Z,23.83
2019-02-02T08:44:54.947Z,29.70
2019-02-02T08:46:01.480Z,28.95
2019-02-02T08:47:06.661Z,29.20
2019-02-02T08:48:16.802Z,27.07
2019-02-02T08:49:23.006Z,26.95
2019-02-02T08:50:34.350Z,28.50
2019-02-02T08:51:47.094Z,28.12
2019-02-02T08:52:53.836Z,24.95
2019-02-02T08:53:59.932Z,23.35
2019-02-02T08:55:05.037Z,23.73
2019-02-02T08:56:11.568Z,22.52
2019-02-02T08:57:17.178Z,23.05
2019-02-02T08:58:22.231Z,27.77
2019-02-02T08:59:26.993Z,24.43
2019-02-02T09:00:39.255Z,25.95
2019-02-02T09:01:48.133Z,23.80
2019-02-02T09:02:53.450Z,42.45
2019-02-02T09:03:58.249Z,26.00
2019-02-02T09:05:07.128Z,24.60
2019-02-02T09:06:11.855Z,26.25
2019-02-02T09:07:16.571Z,28.07
2019-02-02T09:08:22.272Z,33.28
2019-02-02T09:09:33.088Z,28.52
2019-02-02T09:10:37.961Z,34.98
2019-02-02T09:11:43.426Z,39.48
2019-02-02T09:12:52.607Z,26.90
2019-02-02T09:13:58.148Z,28.67
2019-02-02T09:15:03.253Z,27.45
2019-02-02T09:16:13.363Z,31.17
2019-02-02T09:17:18.434Z,36.35
2019-02-02T09:18:23.111Z,31.25
2019-02-02T09:19:34.090Z,27.30
2019-02-02T09:20:39.318Z,30.85
2019-02-02T09:21:45.014Z,25.12
2019-02-02T09:23:02.487Z,29.20
2019-02-02T09:23:57.161Z,34.85
2019-02-02T09:25:02.273Z,28.42
2019-02-02T09:26:08.237Z,29.90
2019-02-02T09:27:26.777Z,23.85
2019-02-02T09:28:40.600Z,32.17
2019-02-02T09:29:48.755Z,28.92
2019-02-02T09:30:56.268Z,38.90
2019-02-02T09:32:05.934Z,24.82
2019-02-02T09:33:11.713Z,30.35
2019-02-02T09:34:17.755Z,29.12
2019-02-02T09:35:25.609Z,29.02
2019-02-02T09:36:30.774Z,32.65
2019-02-02T09:37:38.226Z,27.52
2019-02-02T09:38:49.872Z,31.87
2019-02-02T09:39:58.708Z,26.12
2019-02-02T09:41:05.263Z,23.95
2019-02-02T09:42:16.199Z,26.93
2019-02-02T09:43:27.095Z,29.35
2019-02-02T09:44:32.596Z,28.17
2019-02-02T09:45:47.524Z,33.85
2019-02-02T09:46:53.220Z,27.42
2019-02-02T09:47:58.218Z,30.50
2019-02-02T09:49:04.185Z,30.92
2019-02-02T09:50:11.183Z,27.60
2019-02-02T09:51:18.018Z,27.70
2019-02-02T09:52:23.012Z,35.88
2019-02-02T09:53:27.991Z,39.13
2019-02-02T09:54:32.868Z,32.33
2019-02-02T09:55:38.108Z,37.42
2019-02-02T09:56:46.187Z,30.10
2019-02-02T09:57:54.998Z,33.23
2019-02-02T09:59:02.459Z,29.50
2019-02-02T10:00:10.380Z,35.08
2019-02-02T10:01:27.088Z,32.00
2019-02-02T10:02:22.079Z,33.65
2019-02-02T10:03:26.911Z,26.15
2019-02-02T10:04:31.335Z,31.10
2019-02-02T10:05:41.780Z,28.32
2019-02-02T10:06:46.455Z,33.10
2019-02-02T10:07:52.882Z,30.52
2019-02-02T10:08:59.479Z,30.75
2019-02-02T10:10:07.933Z,35.88
2019-02-02T10:11:12.796Z,25.97
2019-02-02T10:12:21.001Z,33.10
2019-02-02T10:13:34.922Z,31.12
2019-02-02T10:14:40.284Z,31.25
2019-02-02T10:15:55.099Z,25.72
2019-02-02T10:16:59.348Z,26.97
2019-02-02T10:18:06.778Z,34.92
2019-02-02T10:19:14.582Z,25.85
2019-02-02T10:20:20.542Z,24.12
2019-02-02T10:21:25.920Z,24.67
2019-02-02T10:22:30.191Z,26.45
2019-02-02T10:24:11.081Z,24.30
2019-02-02T10:25:17.738Z,24.43
2019-02-02T10:26:22.176Z,21.95
2019-02-02T10:27:39.151Z,20.40
2019-02-02T10:29:17.800Z,23.67
2019-02-02T10:32:11.330Z,17.17
2019-02-02T10:33:39.092Z,22.42
2019-02-02T10:34:44.610Z,21.48
2019-02-02T10:35:49.642Z,21.60
2019-02-02T10:36:54.577Z,20.15
2019-02-02T10:38:00.180Z,23.98
2019-02-02T10:44:51.062Z,21.45
2019-02-02T10:46:35.471Z,22.30
2019-02-02T10:47:52.229Z,24.18
2019-02-02T10:49:10.222Z,26.07
2019-02-02T10:50:26.733Z,22.32
2019-02-02T10:51:32.465Z,20.82
2019-02-02T10:52:43.185Z,24.12
2019-02-02T10:53:50.291Z,26.17
2019-02-02T10:54:56.052Z,25.35
2019-02-02T10:56:05.102Z,22.02
2019-02-02T10:57:11.925Z,34.00
2019-02-02T10:58:25.084Z,30.57
2019-02-02T10:59:33.427Z,24.05
2019-02-02T11:00:40.606Z,24.92
2019-02-02T11:01:51.249Z,28.55
2019-02-02T11:03:02.730Z,24.55
2019-02-02T11:04:15.851Z,29.77
2019-02-02T11:05:28.505Z,25.17
2019-02-02T11:06:33.758Z,26.25
2019-02-02T11:07:48.427Z,23.47
2019-02-02T11:08:53.906Z,26.52
2019-02-02T11:10:01.601Z,23.98
2019-02-02T11:13:16.338Z,30.50
2019-02-02T11:14:21.541Z,21.57
2019-02-02T11:16:11.147Z,21.20
2019-02-02T11:17:20.223Z,24.37
2019-02-02T11:18:30.478Z,23.50
2019-02-02T11:19:35.498Z,24.72
2019-02-02T11:20:42.292Z,22.15
2019-02-02T11:21:51.206Z,26.62
2019-02-02T11:22:56.568Z,25.52
2019-02-02T11:24:06.506Z,27.13
2019-02-02T11:25:19.372Z,23.57
2019-02-02T11:26:35.007Z,22.37
2019-02-02T11:29:07.219Z,22.80
2019-02-02T11:30:19.281Z,22.05
2019-02-02T11:31:24.134Z,23.62
2019-02-02T11:32:32.247Z,28.73
2019-02-02T11:33:39.005Z,25.43
2019-02-02T11:35:03.216Z,26.42
2019-02-02T11:38:36.697Z,21.37
2019-02-02T11:39:49.299Z,28.55
2019-02-02T11:41:03.895Z,23.60
2019-02-02T11:42:09.447Z,26.20
2019-02-02T11:43:19.376Z,38.63
2019-02-02T11:44:51.726Z,28.42
2019-02-02T11:45:57.899Z,45.10
2019-02-02T11:47:04.478Z,43.85
2019-02-02T11:48:09.691Z,26.30
2019-02-02T11:49:15.359Z,32.25
2019-02-02T11:50:21.519Z,23.73
2019-02-02T11:51:26.099Z,21.73
2019-02-02T11:52:40.975Z,26.57
2019-02-02T11:53:45.420Z,22.87
2019-02-02T11:54:50.408Z,21.80
2019-02-02T11:55:57.253Z,25.62
2019-02-02T11:57:13.584Z,27.98
2019-02-02T11:58:24.545Z,21.90
2019-02-02T11:59:31.267Z,29.15
2019-02-02T12:00:39.561Z,27.13
2019-02-02T12:01:43.957Z,26.57
2019-02-02T12:02:51.329Z,19.98
2019-02-02T12:03:56.604Z,22.87
2019-02-02T12:05:02.288Z,20.62
2019-02-02T12:06:06.928Z,26.73
2019-02-02T12:07:11.728Z,17.12
2019-02-02T12:08:18.861Z,19.87
2019-02-02T12:09:26.735Z,19.00
2019-02-02T12:10:42.859Z,19.40
2019-02-02T12:11:53.834Z,22.02
2019-02-02T12:13:04.863Z,18.42
2019-02-02T12:14:11.198Z,18.37
2019-02-02T12:15:23.269Z,22.77
2019-02-02T12:16:34.256Z,17.40
2019-02-02T12:17:45.584Z,24.60
2019-02-02T12:19:01.848Z,20.85
2019-02-02T12:20:15.735Z,23.35
2019-02-02T12:21:26.337Z,23.00
2019-02-02T12:23:20.664Z,22.20
2019-02-02T12:25:01.829Z,25.15
2019-02-02T12:26:14.362Z,25.30
2019-02-02T12:27:25.617Z,34.30
2019-02-02T12:30:19.341Z,39.20
2019-02-02T12:31:35.858Z,41.08
2019-02-02T12:32:46.732Z,39.50
2019-02-02T12:33:59.248Z,36.98
2019-02-02T12:35:43.927Z,39.05
2019-02-02T12:36:56.240Z,34.38
2019-02-02T12:38:22.807Z,38.60
2019-02-02T12:39:34.209Z,45.28
2019-02-02T12:40:43.330Z,51.25
2019-02-02T12:42:06.280Z,35.83
2019-02-02T12:43:34.117Z,41.63
2019-02-02T12:46:45.655Z,36.95
2019-02-02T12:51:33.143Z,36.08
2019-02-02T12:52:40.758Z,36.98
2019-02-02T12:53:50.298Z,34.38
2019-02-02T12:55:11.562Z,29.35
2019-02-02T12:56:29.217Z,34.73
2019-02-02T12:57:36.763Z,30.68
2019-02-02T12:58:45.082Z,25.25
2019-02-02T12:59:49.772Z,27.60
2019-02-02T13:00:58.819Z,27.17
2019-02-02T13:02:09.270Z,30.72
2019-02-02T13:03:23.190Z,25.88
2019-02-02T13:04:29.193Z,27.58
2019-02-02T13:05:34.376Z,27.55
2019-02-02T13:09:39.101Z,39.67
2019-02-02T13:12:31.093Z,24.30
2019-02-02T13:13:37.714Z,27.65
2019-02-02T13:14:43.485Z,28.92
2019-02-02T13:16:00.057Z,28.70
2019-02-02T13:17:05.033Z,27.02
2019-02-02T13:18:12.598Z,30.05
2019-02-02T13:19:17.537Z,26.50
2019-02-02T13:20:24.235Z,29.95
2019-02-02T13:21:29.245Z,27.55
2019-02-02T13:22:39.103Z,33.98
2019-02-02T13:23:44.034Z,35.17
2019-02-02T13:24:50.092Z,28.67
2019-02-02T13:26:11.029Z,35.13
2019-02-02T13:27:16.681Z,33.48
2019-02-02T13:28:24.195Z,33.25
2019-02-02T13:29:37.185Z,33.55
2019-02-02T13:30:42.832Z,33.83
2019-02-02T13:32:16.107Z,33.92
2019-02-02T13:33:21.149Z,34.88
2019-02-02T13:34:26.335Z,41.15
2019-02-02T13:36:13.273Z,39.65
2019-02-02T13:37:22.674Z,41.18
2019-02-02T13:38:42.009Z,42.55
2019-02-02T13:39:34.408Z,38.35
2019-02-02T13:40:42.068Z,44.10
2019-02-02T13:41:50.198Z,39.33
2019-02-02T13:42:55.103Z,44.15
2019-02-02T13:44:01.729Z,43.60
2019-02-02T13:45:08.170Z,38.63
2019-02-02T13:46:13.265Z,48.45
2019-02-02T13:47:22.999Z,47.35
2019-02-02T13:48:33.042Z,45.30
2019-02-02T13:49:39.101Z,47.58
2019-02-02T13:50:54.851Z,44.70
2019-02-02T13:52:03.019Z,53.70
2019-02-02T13:53:09.658Z,54.35
2019-02-02T13:54:18.724Z,51.63
2019-02-02T13:55:35.658Z,50.70
2019-02-02T13:56:40.620Z,44.85
2019-02-02T13:57:46.760Z,47.83
2019-02-02T13:58:55.824Z,52.85
2019-02-02T14:00:10.490Z,49.30
2019-02-02T14:01:15.239Z,41.83
2019-02-02T14:02:21.173Z,40.00
2019-02-02T14:03:26.511Z,38.75
2019-02-02T14:04:31.325Z,40.98
2019-02-02T14:05:38.788Z,41.92
2019-02-02T14:06:43.098Z,46.13
2019-02-02T14:08:00.376Z,43.23
2019-02-02T14:09:22.807Z,45.28
2019-02-02T14:10:52.449Z,43.48
2019-02-02T14:12:56.175Z,41.13
2019-02-02T14:14:09.444Z,44.25
2019-02-02T14:15:47.657Z,45.05
2019-02-02T14:16:51.385Z,41.50
2019-02-02T14:17:56.098Z,51.68
2019-02-02T14:19:00.772Z,47.08
2019-02-02T14:20:05.323Z,55.78
2019-02-02T14:21:10.815Z,48.52
2019-02-02T14:22:15.744Z,61.00
2019-02-02T14:23:21.021Z,50.65
2019-02-02T14:24:26.867Z,52.05
2019-02-02T14:25:38.621Z,42.60
2019-02-02T14:26:42.872Z,40.25
2019-02-02T14:27:58.195Z,44.73
2019-02-02T14:28:54.866Z,42.13
2019-02-02T14:30:03.935Z,46.18
2019-02-02T14:31:08.938Z,47.70
2019-02-02T14:32:16.557Z,37.50
2019-02-02T14:33:22.020Z,46.70
2019-02-02T14:34:39.596Z,40.80
2019-02-02T14:35:34.235Z,44.00
2019-02-02T14:36:41.375Z,37.78
2019-02-02T14:37:50.891Z,34.85
2019-02-02T14:38:55.538Z,36.73
2019-02-02T14:40:02.782Z,39.90
2019-02-02T14:41:07.621Z,36.15
2019-02-02T14:42:32.773Z,46.63
2019-02-02T14:43:38.061Z,45.28
2019-02-02T14:44:45.553Z,40.08
2019-02-02T14:45:49.592Z,38.53
2019-02-02T14:46:56.498Z,47.08
2019-02-02T14:48:05.379Z,40.90
2019-02-02T14:49:21.397Z,38.13
2019-02-02T14:50:33.934Z,37.50
2019-02-02T14:51:46.467Z,35.60
2019-02-02T14:55:24.745Z,33.85
2019-02-02T14:56:58.618Z,37.95
2019-02-02T14:58:19.207Z,33.90
2019-02-02T15:00:15.408Z,36.90
2019-02-02T15:01:59.428Z,42.05
2019-02-02T15:03:25.193Z,37.85
2019-02-02T15:04:32.686Z,39.53
2019-02-02T15:10:30.396Z,163.82
2019-02-02T15:11:42.761Z,73.50
2019-02-02T15:12:50.832Z,56.98
2019-02-02T15:14:10.818Z,57.35
2019-02-02T15:15:16.130Z,50.12
2019-02-02T15:16:46.840Z,45.20
2019-02-02T15:17:54.107Z,49.80
2019-02-02T15:18:59.311Z,43.95
2019-02-02T15:20:05.542Z,44.23
2019-02-02T15:21:14.349Z,36.48
2019-02-02T15:24:36.333Z,44.95
2019-02-02T15:25:46.236Z,55.48
2019-02-02T15:27:00.147Z,43.85
2019-02-02T15:28:14.300Z,39.10
2019-02-02T15:29:22.198Z,35.55